Time;durP1;ratioP1;P1;durP2;ratioP2;P2;SDS_P1;SDS_P2;PMS_P1;PMS_P2;Temp;Humidity;BMP_temperature;BMP_pressure;BME280_temperature;BME280_humidity;BME280_pressure;Samples;Min_cycle;Max_cycle;Signal;HPM_P1;HPM_P2
2024/01/19 00:01:40;;;;;;;27.63;10.67;;;-1.50;99.90;;;;;;5066014;28;20276;-65
2024/01/19 00:04:06;;;;;;;27.77;12.03;;;-1.50;99.90;;;;;;5042149;28;20192;-65
2024/01/19 00:06:31;;;;;;;29.90;9.97;;;-1.50;99.90;;;;;;5054944;28;20243;-65
2024/01/19 00:08:57;;;;;;;25.43;11.23;;;-1.50;99.90;;;;;;5047120;28;20182;-65
2024/01/19 00:11:23;;;;;;;18.60;8.93;;;-1.50;99.90;;;;;;5049375;28;20205;-66
2024/01/19 00:13:48;;;;;;;20.80;8.50;;;-1.40;99.90;;;;;;5050133;28;20201;-66
2024/01/19 00:16:14;;;;;;;19.30;8.33;;;-1.40;99.90;;;;;;5040785;28;20174;-66
2024/01/19 00:18:39;;;;;;;22.40;9.30;;;-1.50;99.90;;;;;;5034568;28;20179;-65
2024/01/19 00:21:05;;;;;;;17.90;10.00;;;-1.50;99.90;;;;;;5048664;28;20174;-65
2024/01/19 00:23:31;;;;;;;18.87;9.10;;;-1.50;99.90;;;;;;5054081;28;20208;-65
2024/01/19 00:25:56;;;;;;;19.80;10.17;;;-1.50;99.90;;;;;;5039144;28;20222;-65
2024/01/19 00:28:22;;;;;;;48.57;18.80;;;-1.60;99.90;;;;;;5041611;28;20350;-65
2024/01/19 00:30:47;;;;;;;38.00;15.00;;;-1.50;99.90;;;;;;5054591;28;20200;-65
2024/01/19 00:33:13;;;;;;;25.07;12.90;;;-1.50;99.90;;;;;;5046875;28;20542;-66
2024/01/19 00:35:38;;;;;;;27.20;11.60;;;-1.60;99.90;;;;;;5048097;28;20189;-65
2024/01/19 00:38:04;;;;;;;22.40;10.63;;;-1.50;99.90;;;;;;5047415;28;20205;-65
2024/01/19 00:40:29;;;;;;;21.53;9.37;;;-1.60;99.90;;;;;;5035144;28;20179;-65
2024/01/19 00:42:55;;;;;;;27.20;9.17;;;-1.60;99.90;;;;;;5047197;28;20252;-65
2024/01/19 00:45:21;;;;;;;35.03;11.23;;;-1.70;99.90;;;;;;5041926;28;20178;-65
2024/01/19 00:47:46;;;;;;;38.13;9.90;;;-0.30;99.90;;;;;;5034408;28;20545;-65
2024/01/19 00:50:13;;;;;;;24.13;10.07;;;-1.70;99.90;;;;;;5033524;28;20243;-65
2024/01/19 00:52:38;;;;;;;20.77;8.90;;;-1.70;99.90;;;;;;5034180;28;20204;-65
2024/01/19 00:55:04;;;;;;;26.80;9.67;;;-1.80;99.90;;;;;;5047625;28;20526;-66
2024/01/19 00:57:29;;;;;;;20.80;9.67;;;-1.80;99.90;;;;;;5038222;28;20664;-65
2024/01/19 00:59:55;;;;;;;20.77;10.50;;;-1.80;99.90;;;;;;5053162;28;20186;-66
2024/01/19 01:02:21;;;;;;;27.30;9.90;;;-1.70;99.90;;;;;;5034204;28;20186;-65
2024/01/19 01:04:46;;;;;;;26.83;9.20;;;-1.70;99.90;;;;;;5051166;28;20190;-66
2024/01/19 01:07:12;;;;;;;15.47;8.90;;;-1.70;99.90;;;;;;5034002;28;20190;-65
2024/01/19 01:09:38;;;;;;;20.87;9.50;;;-1.70;99.90;;;;;;5047085;28;20191;-65
2024/01/19 01:12:04;;;;;;;18.50;8.90;;;-1.70;99.90;;;;;;5040556;28;20456;-65
2024/01/19 01:14:30;;;;;;;22.07;8.73;;;-1.70;99.90;;;;;;5056655;28;20189;-65
2024/01/19 01:16:55;;;;;;;18.70;8.10;;;-1.60;99.90;;;;;;5033960;28;20417;-65
2024/01/19 01:19:21;;;;;;;20.07;8.77;;;-1.60;99.90;;;;;;5046249;28;20599;-65
2024/01/19 01:21:46;;;;;;;20.03;7.80;;;-1.60;99.90;;;;;;5053572;28;20231;-65
2024/01/19 01:24:11;;;;;;;20.10;8.77;;;-1.60;99.90;;;;;;5064548;28;20724;-65
2024/01/19 01:26:37;;;;;;;16.93;8.40;;;-1.60;99.90;;;;;;5034434;28;20208;-65
2024/01/19 01:29:02;;;;;;;21.90;8.17;;;-1.60;99.90;;;;;;5045830;28;20626;-65
2024/01/19 01:31:28;;;;;;;20.93;7.50;;;-1.60;99.90;;;;;;5034068;28;20275;-65
2024/01/19 01:33:53;;;;;;;20.27;8.73;;;-1.60;99.90;;;;;;5033001;28;20217;-65
2024/01/19 01:36:19;;;;;;;24.63;8.67;;;-1.60;99.90;;;;;;5046161;28;20277;-65
2024/01/19 01:38:44;;;;;;;16.50;7.83;;;-1.60;99.90;;;;;;5033433;28;20206;-65
2024/01/19 01:41:10;;;;;;;17.90;7.73;;;-1.60;99.90;;;;;;5033530;28;20193;-66
2024/01/19 01:43:36;;;;;;;27.07;10.00;;;-1.60;99.90;;;;;;5054951;28;20629;-65
2024/01/19 01:46:01;;;;;;;21.73;10.80;;;-1.60;99.90;;;;;;5034019;28;20846;-65
2024/01/19 01:48:27;;;;;;;21.30;9.73;;;-1.60;99.90;;;;;;5033059;28;20190;-65
2024/01/19 01:50:54;;;;;;;23.83;9.90;;;-1.60;99.90;;;;;;5032745;28;20260;-65
2024/01/19 01:53:20;;;;;;;14.73;8.50;;;-1.70;99.90;;;;;;5046370;28;20201;-65
2024/01/19 01:55:47;;;;;;;22.30;9.20;;;-1.60;99.90;;;;;;5034076;28;20917;-65
2024/01/19 01:58:15;;;;;;;28.57;11.10;;;-1.60;99.90;;;;;;5042655;28;20814;-65
2024/01/19 02:00:43;;;;;;;25.20;9.90;;;-1.60;99.90;;;;;;5046173;28;20429;-65
2024/01/19 02:03:09;;;;;;;19.73;9.10;;;-1.60;99.90;;;;;;5032487;28;20417;-64
2024/01/19 02:05:35;;;;;;;32.33;8.20;;;-1.60;99.90;;;;;;5032374;28;20421;-66
2024/01/19 02:08:01;;;;;;;20.00;10.27;;;-1.60;99.90;;;;;;5032776;28;20451;-66
2024/01/19 02:10:26;;;;;;;21.10;9.30;;;-1.60;99.90;;;;;;5032652;28;20273;-66
2024/01/19 02:12:52;;;;;;;22.77;8.97;;;-1.70;99.90;;;;;;5032955;28;20622;-66
2024/01/19 02:15:22;;;;;;;15.00;8.30;;;-1.70;99.90;;;;;;5041488;28;20564;-66
2024/01/19 02:17:50;;;;;;;15.93;7.90;;;-1.80;99.90;;;;;;5032677;28;20917;-67
2024/01/19 02:20:15;;;;;;;21.07;8.83;;;-1.80;99.90;;;;;;5032084;28;20467;-66
2024/01/19 02:22:43;;;;;;;22.07;10.27;;;-1.90;99.90;;;;;;5035084;28;21013;-66
2024/01/19 02:25:09;;;;;;;18.40;8.70;;;-1.90;99.90;;;;;;5044583;28;20230;-66
2024/01/19 02:27:34;;;;;;;24.33;9.77;;;-1.90;99.90;;;;;;5033059;28;20425;-66
2024/01/19 02:30:01;;;;;;;25.33;10.93;;;-1.80;99.90;;;;;;5044766;28;20182;-66
2024/01/19 02:32:27;;;;;;;20.90;10.03;;;-1.80;99.90;;;;;;5045775;28;20196;-66
2024/01/19 02:34:52;;;;;;;20.40;10.40;;;-1.80;99.90;;;;;;5046718;28;20948;-67
2024/01/19 02:37:19;;;;;;;25.17;9.37;;;-1.80;99.90;;;;;;5057969;28;20272;-66
2024/01/19 02:39:44;;;;;;;17.80;10.10;;;-1.80;99.90;;;;;;5044470;28;20179;-67
2024/01/19 02:42:10;;;;;;;20.73;9.23;;;-1.80;99.90;;;;;;5045545;28;20443;-66
2024/01/19 02:44:35;;;;;;;19.83;8.90;;;-1.80;99.90;;;;;;5040223;28;20534;-66
2024/01/19 02:47:01;;;;;;;17.40;8.60;;;-1.80;99.90;;;;;;5032348;28;20179;-66
2024/01/19 02:49:26;;;;;;;28.20;10.00;;;-1.70;99.90;;;;;;5031612;28;20183;-66
2024/01/19 02:51:52;;;;;;;23.10;10.00;;;-1.70;99.90;;;;;;5032204;28;20576;-66
2024/01/19 02:54:17;;;;;;;31.87;9.93;;;-1.70;99.90;;;;;;5051890;28;20181;-67
2024/01/19 02:56:43;;;;;;;21.40;9.83;;;-1.80;99.90;;;;;;5038334;28;20186;-66
2024/01/19 02:59:09;;;;;;;37.87;9.77;;;-1.80;99.90;;;;;;5053495;28;20181;-66
2024/01/19 03:01:35;;;;;;;20.70;8.40;;;-1.70;99.90;;;;;;5038097;28;20206;-66
2024/01/19 03:04:01;;;;;;;25.53;9.63;;;-1.80;99.90;;;;;;5041146;28;20190;-66
2024/01/19 03:06:27;;;;;;;15.43;8.40;;;-1.80;99.90;;;;;;5031508;28;20933;-66
2024/01/19 03:08:52;;;;;;;21.63;10.00;;;-1.80;99.90;;;;;;5031802;28;20480;-66
2024/01/19 03:11:17;;;;;;;23.13;9.17;;;-1.90;99.90;;;;;;5031895;28;20277;-66
2024/01/19 03:13:43;;;;;;;20.60;9.37;;;-1.90;99.90;;;;;;5042273;28;20209;-66
2024/01/19 03:16:08;;;;;;;24.67;10.40;;;-1.90;99.90;;;;;;5038107;28;20209;-66
2024/01/19 03:18:34;;;;;;;17.13;8.23;;;-1.90;99.90;;;;;;5031681;28;20191;-66
2024/01/19 03:20:59;;;;;;;13.93;7.60;;;-2.00;99.90;;;;;;5031499;28;20178;-66
2024/01/19 03:23:25;;;;;;;20.60;9.10;;;-2.00;99.90;;;;;;5043730;28;20669;-66
2024/01/19 03:25:51;;;;;;;22.40;9.83;;;-2.00;99.90;;;;;;5042065;28;20229;-66
2024/01/19 03:28:17;;;;;;;26.10;9.80;;;-2.10;99.90;;;;;;5035966;28;20350;-66
2024/01/19 03:30:42;;;;;;;21.13;8.73;;;-2.20;99.90;;;;;;5042089;28;20530;-66
2024/01/19 03:33:08;;;;;;;27.30;9.67;;;-2.30;99.90;;;;;;5048500;28;20222;-66
2024/01/19 03:35:34;;;;;;;18.13;9.50;;;-2.40;99.90;;;;;;5048664;28;20224;-67
2024/01/19 03:37:59;;;;;;;36.73;10.00;;;-2.40;99.90;;;;;;5035440;28;20214;-66
2024/01/19 03:40:25;;;;;;;19.87;8.40;;;-2.50;99.90;;;;;;5035828;28;20205;-66
2024/01/19 03:42:50;;;;;;;26.57;10.20;;;-2.60;99.90;;;;;;5042853;28;20190;-66
2024/01/19 03:45:16;;;;;;;30.43;9.03;;;-2.60;99.90;;;;;;5044723;28;20182;-66
2024/01/19 03:47:43;;;;;;;25.93;11.77;;;-2.70;99.90;;;;;;5035627;28;20190;-66
2024/01/19 03:50:09;;;;;;;16.10;7.53;;;-2.70;99.90;;;;;;5048273;28;20583;-66
2024/01/19 03:52:34;;;;;;;22.90;11.57;;;-2.70;99.90;;;;;;5035150;28;20461;-66
2024/01/19 03:55:00;;;;;;;26.43;10.40;;;-2.70;99.90;;;;;;5042223;28;20186;-66
2024/01/19 03:57:26;;;;;;;24.17;10.40;;;-2.70;99.90;;;;;;5021126;28;20174;-64
2024/01/19 03:59:51;;;;;;;27.37;12.03;;;-2.60;99.90;;;;;;5057483;28;20189;-64
2024/01/19 04:02:17;;;;;;;22.87;8.67;;;-2.60;99.90;;;;;;5035339;28;20617;-64
2024/01/19 04:04:43;;;;;;;24.00;10.63;;;-2.60;99.90;;;;;;5034699;28;20948;-65
2024/01/19 04:07:09;;;;;;;17.80;9.53;;;-2.50;99.90;;;;;;5041516;28;20178;-65
2024/01/19 04:09:34;;;;;;;27.43;11.23;;;-2.50;99.90;;;;;;5042165;28;20467;-65
2024/01/19 04:12:09;;;;;;;26.80;10.50;;;-0.60;99.90;;;;;;5041537;28;20240;-65
2024/01/19 04:14:34;;;;;;;28.10;10.73;;;-2.40;99.90;;;;;;5049343;28;20180;-65
2024/01/19 04:17:00;;;;;;;39.67;9.50;;;-2.40;99.90;;;;;;5042770;28;20428;-65
2024/01/19 04:19:25;;;;;;;17.67;9.07;;;-2.40;99.90;;;;;;5040197;28;20210;-65
2024/01/19 04:21:50;;;;;;;19.67;10.27;;;-2.30;99.90;;;;;;5034074;28;20205;-65
2024/01/19 04:24:16;;;;;;;29.80;11.30;;;-2.30;99.90;;;;;;5035886;28;20230;-65
2024/01/19 04:26:41;;;;;;;39.80;16.60;;;-2.30;99.90;;;;;;5036201;28;20597;-65
2024/01/19 04:29:07;;;;;;;35.17;16.27;;;-2.30;99.90;;;;;;5040852;28;20638;-65
2024/01/19 04:31:32;;;;;;;26.50;14.63;;;-2.30;99.90;;;;;;5034868;28;20186;-65
2024/01/19 04:33:58;;;;;;;25.97;10.93;;;-2.30;99.90;;;;;;5032742;28;20225;-65
2024/01/19 04:36:23;;;;;;;31.10;11.67;;;-2.30;99.90;;;;;;5034243;28;20186;-65
2024/01/19 04:38:51;;;;;;;19.90;10.57;;;-2.20;99.90;;;;;;5034579;28;20257;-65
2024/01/19 04:41:17;;;;;;;22.63;10.87;;;-2.20;99.90;;;;;;5034703;28;20213;-65
2024/01/19 04:43:42;;;;;;;21.30;10.27;;;-2.20;99.90;;;;;;5043618;28;20877;-65
2024/01/19 04:46:08;;;;;;;23.20;9.90;;;-2.20;99.90;;;;;;5041455;28;20666;-65
2024/01/19 04:48:33;;;;;;;23.37;9.37;;;-2.20;99.90;;;;;;5053718;28;20193;-65
2024/01/19 04:50:59;;;;;;;23.73;10.97;;;-2.20;99.90;;;;;;5041180;28;20247;-65
2024/01/19 04:53:24;;;;;;;28.83;9.57;;;-2.20;99.90;;;;;;5040489;28;20213;-65
2024/01/19 04:55:49;;;;;;;19.47;8.37;;;-2.20;99.90;;;;;;5047306;28;20185;-65
2024/01/19 04:58:15;;;;;;;17.50;9.07;;;-2.20;99.90;;;;;;5044241;28;20186;-65
2024/01/19 05:00:41;;;;;;;19.20;8.10;;;-2.20;99.90;;;;;;5054136;28;20526;-64
2024/01/19 05:03:06;;;;;;;23.00;10.13;;;-2.30;99.90;;;;;;5046644;28;20424;-65
2024/01/19 05:05:32;;;;;;;23.27;9.00;;;-2.30;99.90;;;;;;5033980;28;20198;-64
2024/01/19 05:08:00;;;;;;;22.70;10.17;;;-2.30;99.90;;;;;;5059810;28;20268;-65
2024/01/19 05:10:25;;;;;;;27.93;11.40;;;-2.30;99.90;;;;;;5060811;28;20203;-65
2024/01/19 05:12:51;;;;;;;21.60;8.80;;;-2.20;99.90;;;;;;5046817;28;20458;-65
2024/01/19 05:15:16;;;;;;;19.43;9.20;;;-2.20;99.90;;;;;;5047556;28;20190;-65
2024/01/19 05:17:42;;;;;;;19.10;9.57;;;-2.20;99.90;;;;;;5046531;28;20189;-64
2024/01/19 05:20:08;;;;;;;21.40;9.43;;;-2.10;99.90;;;;;;5047103;28;20551;-65
2024/01/19 05:22:34;;;;;;;25.33;9.53;;;-2.10;99.90;;;;;;5059259;28;20189;-65
2024/01/19 05:24:59;;;;;;;31.27;12.23;;;-2.00;99.90;;;;;;5035662;28;20478;-65
2024/01/19 05:27:24;;;;;;;33.83;13.20;;;-1.90;99.90;;;;;;5041432;28;20579;-65
2024/01/19 05:29:50;;;;;;;19.33;10.40;;;-1.90;99.90;;;;;;5022673;28;20273;-64
2024/01/19 05:32:15;;;;;;;38.63;9.10;;;-1.90;99.90;;;;;;5045866;28;20582;-65
2024/01/19 05:34:43;;;;;;;26.80;10.37;;;-1.90;99.90;;;;;;5034271;28;20186;-65
2024/01/19 05:37:08;;;;;;;22.87;10.50;;;-1.90;99.90;;;;;;5033389;28;20868;-65
2024/01/19 05:39:34;;;;;;;17.53;10.60;;;-2.00;99.90;;;;;;5056511;28;20508;-65
2024/01/19 05:41:59;;;;;;;22.40;9.83;;;-2.00;99.90;;;;;;5045489;28;20187;-65
2024/01/19 05:44:25;;;;;;;26.93;10.60;;;-2.00;99.90;;;;;;5036284;28;20262;-64
2024/01/19 05:46:50;;;;;;;23.87;9.83;;;-2.10;99.90;;;;;;5033161;28;20205;-65
2024/01/19 05:49:16;;;;;;;22.83;10.80;;;-2.10;99.90;;;;;;5046167;28;20214;-65
2024/01/19 05:51:44;;;;;;;20.20;9.90;;;-2.10;99.90;;;;;;5044586;28;20631;-65
2024/01/19 05:54:11;;;;;;;25.70;10.47;;;-2.00;99.90;;;;;;5039373;28;20213;-64
2024/01/19 05:56:37;;;;;;;31.40;11.07;;;-2.00;99.90;;;;;;5040615;28;20423;-65
2024/01/19 05:59:02;;;;;;;21.10;9.63;;;-2.00;99.90;;;;;;5059916;28;21020;-65
2024/01/19 06:01:28;;;;;;;20.97;9.57;;;-2.00;99.90;;;;;;5046307;28;20241;-66
2024/01/19 06:03:53;;;;;;;23.00;10.60;;;-2.00;99.90;;;;;;5045373;28;20186;-65
2024/01/19 06:06:19;;;;;;;22.70;10.87;;;-2.00;99.90;;;;;;5052379;28;20276;-65
2024/01/19 06:08:45;;;;;;;26.90;11.23;;;-2.00;99.90;;;;;;5052697;28;20185;-65
2024/01/19 06:11:10;;;;;;;20.93;9.50;;;-2.10;99.90;;;;;;5040027;28;20439;-65
2024/01/19 06:13:39;;;;;;;22.70;10.10;;;-0.70;99.90;;;;;;5035426;28;20554;-65
2024/01/19 06:16:05;;;;;;;22.13;10.33;;;-2.10;99.90;;;;;;5039309;28;20187;-65
2024/01/19 06:18:30;;;;;;;17.43;10.47;;;-2.10;99.90;;;;;;5032244;28;20429;-64
2024/01/19 06:21:00;;;;;;;24.80;10.80;;;-2.00;99.90;;;;;;5032497;28;20195;-64
2024/01/19 06:23:26;;;;;;;34.67;14.43;;;-2.00;99.90;;;;;;5039681;28;20254;-65
2024/01/19 06:25:51;;;;;;;73.47;24.03;;;-2.10;99.90;;;;;;5038388;28;20847;-65
2024/01/19 06:28:17;;;;;;;93.77;27.40;;;-2.20;99.90;;;;;;5042129;28;20547;-64
2024/01/19 06:30:44;;;;;;;110.50;29.33;;;-2.20;99.90;;;;;;5038056;28;20263;-65
2024/01/19 06:33:10;;;;;;;89.93;27.33;;;-2.30;99.90;;;;;;5038918;28;20205;-65
2024/01/19 06:35:36;;;;;;;55.23;20.73;;;-2.30;99.90;;;;;;5038669;28;20428;-65
2024/01/19 06:38:01;;;;;;;48.07;18.00;;;-2.30;99.90;;;;;;5044966;28;20175;-65
2024/01/19 06:40:27;;;;;;;27.47;13.90;;;-2.30;99.90;;;;;;5045724;28;20542;-65
2024/01/19 06:42:52;;;;;;;27.90;11.47;;;-1.10;99.90;;;;;;5053798;28;20210;-65
2024/01/19 06:45:18;;;;;;;39.70;12.53;;;-2.30;99.90;;;;;;5052649;28;20196;-65
2024/01/19 06:47:43;;;;;;;23.30;11.07;;;-2.30;99.90;;;;;;5036702;28;20187;-65
2024/01/19 06:50:10;;;;;;;21.13;10.57;;;-2.40;99.90;;;;;;5047387;28;20196;-65
2024/01/19 06:52:35;;;;;;;28.13;11.77;;;-2.40;99.90;;;;;;5048429;28;20251;-65
2024/01/19 06:55:01;;;;;;;32.80;10.60;;;-2.40;99.90;;;;;;5038893;28;20424;-65
2024/01/19 06:57:26;;;;;;;22.80;10.00;;;-2.40;99.90;;;;;;5034632;28;20235;-65
2024/01/19 06:59:52;;;;;;;25.50;11.73;;;-2.40;99.90;;;;;;5051880;28;20248;-65
2024/01/19 07:02:18;;;;;;;23.73;10.70;;;-2.40;99.90;;;;;;5038654;28;20193;-65
2024/01/19 07:04:43;;;;;;;20.20;10.80;;;-2.40;99.90;;;;;;5045538;28;20199;-65
2024/01/19 07:07:09;;;;;;;29.00;11.00;;;-2.40;99.90;;;;;;5031687;28;20942;-65
2024/01/19 07:09:36;;;;;;;22.30;11.33;;;-2.50;99.90;;;;;;5033036;28;20183;-65
2024/01/19 07:12:02;;;;;;;33.47;13.47;;;-2.50;99.90;;;;;;5044730;28;20437;-65
2024/01/19 07:14:27;;;;;;;24.90;11.07;;;-2.60;99.90;;;;;;5023089;28;20420;-63
2024/01/19 07:16:53;;;;;;;19.40;10.50;;;-2.60;99.90;;;;;;5039436;28;20467;-62
2024/01/19 07:19:18;;;;;;;28.23;13.10;;;-2.60;99.90;;;;;;5043091;28;20304;-63
2024/01/19 07:21:44;;;;;;;23.83;12.03;;;-2.60;99.90;;;;;;5044414;28;20190;-63
2024/01/19 07:24:11;;;;;;;27.93;11.80;;;-2.50;99.90;;;;;;5031609;28;20226;-63
2024/01/19 07:26:37;;;;;;;20.57;10.43;;;-2.50;99.90;;;;;;5032157;28;20178;-63
2024/01/19 07:29:06;;;;;;;22.70;11.60;;;-2.50;99.90;;;;;;5021417;28;20963;-63
2024/01/19 07:31:33;;;;;;;29.07;11.07;;;-2.40;99.90;;;;;;5031842;28;20662;-63
2024/01/19 07:33:58;;;;;;;24.60;12.67;;;-2.40;99.90;;;;;;5036234;28;20565;-63
2024/01/19 07:36:24;;;;;;;27.67;12.00;;;-2.40;99.90;;;;;;5035139;28;20994;-63
2024/01/19 07:38:49;;;;;;;31.53;12.90;;;-2.40;99.90;;;;;;5043696;28;20273;-63
2024/01/19 07:41:15;;;;;;;33.23;11.90;;;-2.50;99.90;;;;;;5038992;28;20182;-63
2024/01/19 07:43:40;;;;;;;41.23;12.20;;;-2.50;99.90;;;;;;5038961;28;20199;-63
2024/01/19 07:46:06;;;;;;;36.20;12.30;;;-2.50;99.90;;;;;;5030741;28;20748;-63
2024/01/19 07:48:32;;;;;;;30.13;12.07;;;-2.50;99.90;;;;;;5031353;28;20277;-63
2024/01/19 07:50:57;;;;;;;29.37;13.57;;;-2.50;99.90;;;;;;5031318;28;20186;-63
2024/01/19 07:53:23;;;;;;;30.60;12.80;;;-2.40;99.90;;;;;;5037784;28;20674;-63
2024/01/19 07:55:48;;;;;;;29.97;14.20;;;-0.80;99.90;;;;;;5039917;28;20289;-63
2024/01/19 07:58:14;;;;;;;30.63;14.27;;;-2.30;99.90;;;;;;5040925;28;20631;-63
2024/01/19 08:00:39;;;;;;;32.03;13.77;;;-2.20;99.90;;;;;;5042266;28;20179;-63
2024/01/19 08:03:05;;;;;;;32.60;12.17;;;-2.10;99.90;;;;;;5041058;28;20277;-63
2024/01/19 08:05:30;;;;;;;21.20;9.53;;;-2.10;99.90;;;;;;5037451;28;20185;-63
2024/01/19 08:07:56;;;;;;;31.93;11.70;;;-2.00;99.90;;;;;;5032075;28;20235;-63
2024/01/19 08:10:21;;;;;;;23.43;11.50;;;-2.00;99.90;;;;;;5042201;28;20646;-63
2024/01/19 08:12:47;;;;;;;19.33;9.77;;;-2.00;99.90;;;;;;5034065;28;20214;-63
2024/01/19 08:15:12;;;;;;;22.83;10.00;;;-2.00;99.90;;;;;;5048417;28;20584;-63
2024/01/19 08:17:38;;;;;;;22.40;9.67;;;-1.90;99.90;;;;;;5043910;28;20174;-63
2024/01/19 08:20:04;;;;;;;21.07;10.57;;;-1.90;99.90;;;;;;5044864;28;20186;-63
2024/01/19 08:22:30;;;;;;;29.20;10.70;;;-2.00;99.90;;;;;;5042505;28;20190;-63
2024/01/19 08:24:55;;;;;;;23.73;11.70;;;-1.90;99.90;;;;;;5036229;28;20461;-64
2024/01/19 08:27:21;;;;;;;32.00;13.40;;;-1.80;99.90;;;;;;5041903;28;20273;-63
2024/01/19 08:29:47;;;;;;;20.50;9.60;;;-1.60;99.90;;;;;;5043437;28;20269;-63
2024/01/19 08:32:13;;;;;;;20.23;9.53;;;-2.60;99.90;;;;;;5040664;28;20201;-64
2024/01/19 08:34:38;;;;;;;17.03;7.90;;;-1.40;99.90;;;;;;5037307;28;20527;-64
2024/01/19 08:37:04;;;;;;;15.90;8.30;;;-1.30;99.90;;;;;;5045275;28;20508;-64
2024/01/19 08:39:29;;;;;;;18.50;8.17;;;-1.10;99.90;;;;;;5041686;28;20681;-63
2024/01/19 08:41:55;;;;;;;11.93;6.33;;;-1.00;99.90;;;;;;5039202;28;20228;-64
2024/01/19 08:44:21;;;;;;;17.33;7.47;;;-0.90;99.90;;;;;;5041258;28;20671;-64
2024/01/19 08:46:47;;;;;;;10.87;6.23;;;-0.90;99.90;;;;;;5040180;28;20342;-63
2024/01/19 08:49:13;;;;;;;17.87;6.87;;;-0.80;99.90;;;;;;5035937;28;20506;-64
2024/01/19 08:51:39;;;;;;;16.20;6.80;;;-0.10;99.90;;;;;;5039582;28;20221;-64
2024/01/19 08:54:05;;;;;;;16.87;6.60;;;-0.80;99.90;;;;;;5040267;28;20203;-64
2024/01/19 08:56:31;;;;;;;12.80;6.93;;;-0.90;99.90;;;;;;5033136;28;20257;-63
2024/01/19 08:58:57;;;;;;;17.90;8.07;;;-1.10;99.90;;;;;;5022761;28;20520;-64
2024/01/19 09:01:23;;;;;;;15.93;7.10;;;-1.00;99.90;;;;;;5034799;28;20429;-64
2024/01/19 09:03:49;;;;;;;11.37;5.97;;;-1.00;99.90;;;;;;5036852;28;20438;-64
2024/01/19 09:06:15;;;;;;;16.17;7.27;;;-0.90;99.90;;;;;;5034980;28;20479;-64
2024/01/19 09:08:42;;;;;;;20.77;7.30;;;-0.80;99.90;;;;;;5032736;28;20478;-64
2024/01/19 09:11:08;;;;;;;19.10;7.43;;;-0.80;99.90;;;;;;5022546;28;20826;-64
2024/01/19 09:13:34;;;;;;;17.53;6.53;;;-0.70;99.90;;;;;;5041488;28;20460;-64
2024/01/19 09:15:59;;;;;;;13.67;6.50;;;-0.50;99.90;;;;;;5039324;28;20780;-64
2024/01/19 09:18:25;;;;;;;11.93;6.60;;;-0.50;99.90;;;;;;5034691;28;20187;-64
2024/01/19 09:20:50;;;;;;;13.80;6.43;;;-0.40;99.90;;;;;;5037465;28;20181;-64
2024/01/19 09:23:16;;;;;;;14.20;5.43;;;-0.30;99.90;;;;;;5038518;28;20198;-64
2024/01/19 09:25:41;;;;;;;13.70;6.10;;;-0.30;99.90;;;;;;5031685;28;20242;-64
2024/01/19 09:28:07;;;;;;;15.53;6.97;;;-0.30;99.90;;;;;;5038313;28;20810;-64
2024/01/19 09:30:32;;;;;;;14.53;6.03;;;-0.20;99.90;;;;;;5032071;28;20281;-64
2024/01/19 09:32:58;;;;;;;14.87;6.70;;;-0.20;99.90;;;;;;5032075;28;20206;-64
2024/01/19 09:35:24;;;;;;;13.60;6.67;;;-0.30;99.90;;;;;;5031464;28;20764;-64
2024/01/19 09:37:49;;;;;;;13.57;6.43;;;-0.20;99.90;;;;;;5041432;28;21192;-64
2024/01/19 09:40:16;;;;;;;10.57;5.90;;;-0.30;99.90;;;;;;5035522;28;20425;-64
2024/01/19 09:42:41;;;;;;;10.57;5.60;;;-0.30;99.90;;;;;;5037380;28;20178;-64
2024/01/19 09:45:17;;;;;;;11.47;4.90;;;-0.20;99.90;;;;;;5044511;28;20420;-64
2024/01/19 09:48:14;;;;;;;11.07;6.47;;;0.00;99.90;;;;;;5037205;28;20713;-64
2024/01/19 09:50:44;;;;;;;9.43;4.30;;;0.30;99.90;;;;;;5035730;28;20444;-64
2024/01/19 09:53:20;;;;;;;11.17;6.57;;;0.50;99.90;;;;;;5031223;28;20453;-64
2024/01/19 09:55:48;;;;;;;7.33;4.33;;;0.50;99.90;;;;;;5031394;28;20429;-64
2024/01/19 09:58:15;;;;;;;8.80;5.20;;;0.40;99.90;;;;;;5039956;28;20468;-64
2024/01/19 10:00:41;;;;;;;10.83;5.10;;;0.50;99.90;;;;;;5032604;28;20429;-64
2024/01/19 10:03:09;;;;;;;6.30;4.17;;;0.40;99.90;;;;;;5030769;28;20524;-64
2024/01/19 10:05:36;;;;;;;17.53;4.87;;;0.50;99.90;;;;;;5031073;28;20930;-64
2024/01/19 10:08:03;;;;;;;14.40;5.07;;;0.40;99.90;;;;;;5033440;28;20436;-64
2024/01/19 10:10:29;;;;;;;17.20;5.57;;;0.40;99.90;;;;;;5040854;28;20428;-64
2024/01/19 10:12:55;;;;;;;74.23;5.17;;;0.40;99.90;;;;;;5033457;28;20506;-64
2024/01/19 10:15:21;;;;;;;10.57;5.43;;;0.40;99.90;;;;;;5031705;28;20709;-64
2024/01/19 10:17:47;;;;;;;10.00;4.50;;;0.40;99.90;;;;;;5040855;28;20421;-64
2024/01/19 10:20:15;;;;;;;6.70;4.17;;;0.40;99.90;;;;;;5029964;28;20592;-64
2024/01/19 10:22:41;;;;;;;9.23;4.13;;;0.40;99.90;;;;;;5030785;28;20643;-65
2024/01/19 10:25:10;;;;;;;9.37;4.50;;;0.40;99.90;;;;;;5041641;28;20494;-64
2024/01/19 10:27:44;;;;;;;9.67;4.03;;;0.60;99.90;;;;;;5033683;28;20437;-64
2024/01/19 10:30:12;;;;;;;10.13;4.27;;;0.70;99.90;;;;;;5041128;28;20439;-64
2024/01/19 10:32:42;;;;;;;9.10;4.93;;;0.50;99.90;;;;;;5030865;28;20453;-64
2024/01/19 10:35:21;;;;;;;9.40;4.30;;;0.50;99.90;;;;;;5035473;28;20478;-64
2024/01/19 10:37:48;;;;;;;12.80;6.10;;;1.80;99.90;;;;;;5032009;28;20466;-64
2024/01/19 10:40:17;;;;;;;11.37;5.10;;;0.50;99.90;;;;;;5033965;28;20460;-64
2024/01/19 10:42:45;;;;;;;12.23;4.50;;;0.50;99.90;;;;;;5033844;28;20775;-64
2024/01/19 10:45:21;;;;;;;13.70;5.23;;;0.20;99.90;;;;;;5043173;28;20456;-65
2024/01/19 10:47:54;;;;;;;11.67;5.70;;;0.10;99.90;;;;;;5031930;28;20939;-65
2024/01/19 10:50:21;;;;;;;9.07;4.87;;;0.00;99.90;;;;;;5032233;28;20510;-65
2024/01/19 10:52:49;;;;;;;7.83;4.50;;;0.00;99.90;;;;;;5030475;28;20452;-64
2024/01/19 10:55:19;;;;;;;7.00;3.40;;;0.10;99.90;;;;;;5041647;28;20474;-65
2024/01/19 10:57:48;;;;;;;10.07;4.60;;;0.50;99.90;;;;;;5041931;28;20465;-65
2024/01/19 11:00:29;;;;;;;6.57;3.70;;;0.90;99.90;;;;;;5040048;28;20428;-65
2024/01/19 11:03:02;;;;;;;8.20;3.67;;;1.30;99.90;;;;;;5040079;28;20425;-64
2024/01/19 11:05:28;;;;;;;6.40;3.03;;;1.70;99.90;;;;;;5046010;28;20909;-65
2024/01/19 11:07:56;;;;;;;6.30;3.90;;;1.80;99.90;;;;;;5041465;28;20748;-65
2024/01/19 11:10:23;;;;;;;7.30;3.77;;;2.10;99.90;;;;;;5033824;28;20429;-65
2024/01/19 11:12:56;;;;;;;8.17;2.73;;;2.20;99.90;;;;;;5030419;28;20457;-65
2024/01/19 11:15:35;;;;;;;5.70;3.67;;;2.30;99.90;;;;;;5033719;28;20416;-64
2024/01/19 11:18:03;;;;;;;9.07;3.70;;;2.30;99.90;;;;;;5038010;28;20452;-64
2024/01/19 11:20:31;;;;;;;6.93;3.10;;;2.00;99.90;;;;;;5031696;28;20453;-65
2024/01/19 11:22:56;;;;;;;6.43;2.90;;;2.00;99.90;;;;;;5031133;28;20435;-64
2024/01/19 11:25:43;;;;;;;7.77;3.17;;;1.90;99.90;;;;;;5034322;28;20477;-64
2024/01/19 11:28:17;;;;;;;8.50;3.73;;;1.80;99.90;;;;;;5040854;28;20189;-69
2024/01/19 11:31:11;;;;;;;5.33;3.00;;;1.40;99.90;;;;;;5051012;28;20945;-64
2024/01/19 11:33:37;;;;;;;8.50;3.33;;;1.60;99.90;;;;;;5037147;28;20461;-68
2024/01/19 11:36:04;;;;;;;9.60;3.80;;;1.70;99.90;;;;;;5040286;28;20936;-68
2024/01/19 11:38:45;;;;;;;5.77;3.23;;;1.70;99.90;;;;;;5038764;28;20517;-67
2024/01/19 11:41:31;;;;;;;4.53;2.73;;;2.20;99.90;;;;;;5037965;28;20409;-68
2024/01/19 11:43:56;;;;;;;7.30;3.17;;;2.30;99.90;;;;;;5042914;28;20417;-68
2024/01/19 11:46:41;;;;;;;6.87;3.03;;;2.10;99.90;;;;;;5043445;28;20535;-68
2024/01/19 11:49:07;;;;;;;7.33;2.57;;;1.70;99.90;;;;;;5043405;28;20184;-67
2024/01/19 11:51:34;;;;;;;7.50;2.90;;;1.40;99.90;;;;;;5036436;28;20781;-68
2024/01/19 11:54:01;;;;;;;5.33;2.97;;;1.50;99.90;;;;;;5034923;28;20206;-68
2024/01/19 11:56:27;;;;;;;8.67;3.33;;;1.50;99.90;;;;;;5033568;28;20425;-68
2024/01/19 11:58:53;;;;;;;5.20;2.80;;;1.40;99.90;;;;;;5041343;28;20427;-68
2024/01/19 12:01:20;;;;;;;7.43;3.00;;;1.30;99.90;;;;;;5040599;28;20227;-68
2024/01/19 12:03:54;;;;;;;24.53;4.17;;;1.20;99.90;;;;;;5038397;28;20439;-68
2024/01/19 12:06:23;;;;;;;6.17;3.37;;;1.30;99.90;;;;;;5035136;28;20483;-67
2024/01/19 12:09:04;;;;;;;4.87;2.60;;;1.30;99.90;;;;;;5045812;28;20435;-68
2024/01/19 12:11:29;;;;;;;10.63;2.70;;;1.30;99.90;;;;;;5039512;28;20423;-67
2024/01/19 12:13:57;;;;;;;6.30;3.17;;;1.60;99.90;;;;;;5040150;28;20460;-68
2024/01/19 12:16:23;;;;;;;4.90;2.80;;;1.40;99.90;;;;;;5022997;28;20259;-67
2024/01/19 12:18:53;;;;;;;5.00;2.40;;;1.60;99.90;;;;;;5042172;28;20468;-67
2024/01/19 12:21:19;;;;;;;3.43;2.07;;;1.50;99.90;;;;;;5037852;28;20182;-67
2024/01/19 12:23:45;;;;;;;4.03;1.93;;;1.40;99.90;;;;;;5044356;28;20428;-67
2024/01/19 12:26:10;;;;;;;5.10;2.50;;;1.30;99.90;;;;;;5043131;28;20297;-67
2024/01/19 12:28:36;;;;;;;3.50;2.33;;;1.20;99.90;;;;;;5041090;28;20178;-67
2024/01/19 12:31:02;;;;;;;4.13;2.23;;;1.10;99.90;;;;;;5045982;28;20182;-67
2024/01/19 12:33:28;;;;;;;11.40;4.50;;;1.00;99.90;;;;;;5041616;28;20225;-67